sensor_id;sensor_type;location;lat;lon;timestamp;pressure;altitude;pressure_sealevel;temperature;humidity
11936;BME280;6027;48.576;9.180;2022-11-21T00:01:31;96145.41;;;4.08;100.00
11936;BME280;6027;48.576;9.180;2022-11-21T00:03:56;96149.97;;;4.06;100.00
11936;BME280;6027;48.576;9.180;2022-11-21T00:06:22;96152.59;;;4.06;100.00
11936;BME280;6027;48.576;9.180;2022-11-21T00:08:47;96152.25;;;4.01;100.00
11936;BME280;6027;48.576;9.180;2022-11-21T00:11:13;96147.34;;;3.98;100.00
11936;BME280;6027;48.576;9.180;2022-11-21T00:13:39;96137.84;;;3.97;100.00
11936;BME280;6027;48.576;9.180;2022-11-21T00:16:10;96136.88;;;3.98;100.00
11936;BME280;6027;48.576;9.180;2022-11-21T00:18:37;96138.34;;;4.01;100.00
11936;BME280;6027;48.576;9.180;2022-11-21T00:21:16;96134.88;;;3.92;100.00
11936;BME280;6027;48.576;9.180;2022-11-21T00:23:43;96122.75;;;3.91;100.00
11936;BME280;6027;48.576;9.180;2022-11-21T00:26:09;96126.34;;;3.90;100.00
11936;BME280;6027;48.576;9.180;2022-11-21T00:28:36;96125.38;;;3.83;100.00
11936;BME280;6027;48.576;9.180;2022-11-21T00:31:02;96123.22;;;3.87;100.00
11936;BME280;6027;48.576;9.180;2022-11-21T00:33:28;96119.63;;;3.88;100.00
11936;BME280;6027;48.576;9.180;2022-11-21T00:35:54;96110.13;;;3.87;100.00
11936;BME280;6027;48.576;9.180;2022-11-21T00:38:19;96098.69;;;3.79;100.00
11936;BME280;6027;48.576;9.180;2022-11-21T00:40:44;96098.34;;;3.74;100.00
11936;BME280;6027;48.576;9.180;2022-11-21T00:43:10;96093.56;;;3.70;100.00
11936;BME280;6027;48.576;9.180;2022-11-21T00:45:36;96084.72;;;3.71;100.00
11936;BME280;6027;48.576;9.180;2022-11-21T00:48:01;96068.53;;;3.67;100.00
11936;BME280;6027;48.576;9.180;2022-11-21T00:50:27;96072.63;;;3.62;100.00
11936;BME280;6027;48.576;9.180;2022-11-21T00:52:56;96068.38;;;3.61;100.00
11936;BME280;6027;48.576;9.180;2022-11-21T00:55:22;96059.53;;;3.62;100.00
11936;BME280;6027;48.576;9.180;2022-11-21T00:57:48;96069.34;;;3.68;100.00
11936;BME280;6027;48.576;9.180;2022-11-21T01:00:14;96069.84;;;3.71;100.00
11936;BME280;6027;48.576;9.180;2022-11-21T01:02:40;96074.41;;;3.61;100.00
11936;BME280;6027;48.576;9.180;2022-11-21T01:05:06;96083.03;;;3.54;100.00
11936;BME280;6027;48.576;9.180;2022-11-21T01:07:31;96076.78;;;3.46;100.00
11936;BME280;6027;48.576;9.180;2022-11-21T01:09:57;96079.09;;;3.50;100.00
11936;BME280;6027;48.576;9.180;2022-11-21T01:12:22;96081.22;;;3.46;100.00
11936;BME280;6027;48.576;9.180;2022-11-21T01:14:48;96079.75;;;3.52;100.00
11936;BME280;6027;48.576;9.180;2022-11-21T01:17:14;96067.66;;;3.51;100.00
11936;BME280;6027;48.576;9.180;2022-11-21T01:19:39;96070.28;;;3.51;100.00
11936;BME280;6027;48.576;9.180;2022-11-21T01:22:05;96068.00;;;3.56;100.00
11936;BME280;6027;48.576;9.180;2022-11-21T01:24:30;96066.25;;;3.64;100.00
11936;BME280;6027;48.576;9.180;2022-11-21T01:26:56;96066.25;;;3.64;100.00
11936;BME280;6027;48.576;9.180;2022-11-21T01:29:21;96066.72;;;3.68;100.00
11936;BME280;6027;48.576;9.180;2022-11-21T01:31:47;96059.53;;;3.70;100.00
11936;BME280;6027;48.576;9.180;2022-11-21T01:34:12;96063.13;;;3.69;100.00
11936;BME280;6027;48.576;9.180;2022-11-21T01:36:39;96055.78;;;3.72;100.00
11936;BME280;6027;48.576;9.180;2022-11-21T01:39:06;96058.91;;;3.76;100.00
11936;BME280;6027;48.576;9.180;2022-11-21T01:41:40;96057.25;;;3.75;100.00
11936;BME280;6027;48.576;9.180;2022-11-21T01:44:19;96045.66;;;3.77;100.00
11936;BME280;6027;48.576;9.180;2022-11-21T01:46:45;96053.34;;;3.79;100.00
11936;BME280;6027;48.576;9.180;2022-11-21T01:49:21;96046.66;;;3.85;100.00
11936;BME280;6027;48.576;9.180;2022-11-21T01:51:58;96045.19;;;3.82;100.00
11936;BME280;6027;48.576;9.180;2022-11-21T01:54:43;96034.03;;;3.88;100.00
11936;BME280;6027;48.576;9.180;2022-11-21T02:00:04;96024.56;;;3.79;100.00
11936;BME280;6027;48.576;9.180;2022-11-21T02:02:36;96025.06;;;3.83;100.00
11936;BME280;6027;48.576;9.180;2022-11-21T02:05:06;96020.97;;;3.88;100.00
11936;BME280;6027;48.576;9.180;2022-11-21T02:07:35;96028.66;;;3.81;100.00
11936;BME280;6027;48.576;9.180;2022-11-21T02:10:02;96029.13;;;3.85;100.00
11936;BME280;6027;48.576;9.180;2022-11-21T02:12:29;96028.00;;;3.79;100.00
11936;BME280;6027;48.576;9.180;2022-11-21T02:14:57;96034.38;;;3.77;100.00
11936;BME280;6027;48.576;9.180;2022-11-21T02:17:25;96027.00;;;3.80;100.00
11936;BME280;6027;48.576;9.180;2022-11-21T02:19:58;96011.28;;;3.72;100.00
11936;BME280;6027;48.576;9.180;2022-11-21T02:25:13;96024.25;;;3.82;100.00
11936;BME280;6027;48.576;9.180;2022-11-21T02:27:40;96023.25;;;3.83;100.00
11936;BME280;6027;48.576;9.180;2022-11-21T02:30:07;96007.22;;;3.86;100.00
11936;BME280;6027;48.576;9.180;2022-11-21T02:32:41;96001.16;;;3.77;100.00
11936;BME280;6027;48.576;9.180;2022-11-21T02:35:11;96010.81;;;3.85;100.00
11936;BME280;6027;48.576;9.180;2022-11-21T02:37:37;95996.41;;;3.81;100.00
11936;BME280;6027;48.576;9.180;2022-11-21T02:40:07;95996.91;;;3.85;100.00
11936;BME280;6027;48.576;9.180;2022-11-21T02:43:05;96003.97;;;3.84;100.00
11936;BME280;6027;48.576;9.180;2022-11-21T02:45:39;96007.22;;;3.86;100.00
11936;BME280;6027;48.576;9.180;2022-11-21T02:48:05;96000.03;;;3.80;100.00
11936;BME280;6027;48.576;9.180;2022-11-21T02:50:33;96003.13;;;3.84;100.00
11936;BME280;6027;48.576;9.180;2022-11-21T02:53:00;96000.19;;;3.78;100.00
11936;BME280;6027;48.576;9.180;2022-11-21T02:55:26;95999.19;;;3.88;100.00
11936;BME280;6027;48.576;9.180;2022-11-21T02:57:52;95991.84;;;3.83;100.00
11936;BME280;6027;48.576;9.180;2022-11-21T03:00:18;95991.84;;;3.83;100.00
11936;BME280;6027;48.576;9.180;2022-11-21T03:02:44;95997.91;;;3.84;100.00
11936;BME280;6027;48.576;9.180;2022-11-21T03:05:11;96002.00;;;3.94;100.00
11936;BME280;6027;48.576;9.180;2022-11-21T03:07:38;95997.56;;;3.87;100.00
11936;BME280;6027;48.576;9.180;2022-11-21T03:10:04;95997.72;;;3.93;100.00
11936;BME280;6027;48.576;9.180;2022-11-21T03:12:29;95998.38;;;3.87;100.00
11936;BME280;6027;48.576;9.180;2022-11-21T03:14:54;95998.72;;;3.92;100.00
11936;BME280;6027;48.576;9.180;2022-11-21T03:17:20;95996.59;;;3.96;100.00
11936;BME280;6027;48.576;9.180;2022-11-21T03:19:45;95994.94;;;3.95;100.00
11936;BME280;6027;48.576;9.180;2022-11-21T03:22:12;95998.88;;;3.91;100.00
11936;BME280;6027;48.576;9.180;2022-11-21T03:24:38;96003.63;;;3.95;100.00
11936;BME280;6027;48.576;9.180;2022-11-21T03:27:03;96001.84;;;4.04;100.00
11936;BME280;6027;48.576;9.180;2022-11-21T03:29:29;96000.38;;;4.01;100.00
11936;BME280;6027;48.576;9.180;2022-11-21T03:31:54;95996.59;;;4.04;100.00
11936;BME280;6027;48.576;9.180;2022-11-21T03:34:19;95994.16;;;4.02;100.00
11936;BME280;6027;48.576;9.180;2022-11-21T03:36:45;95991.50;;;3.94;100.00
11936;BME280;6027;48.576;9.180;2022-11-21T03:39:10;95986.94;;;3.96;100.00
11936;BME280;6027;48.576;9.180;2022-11-21T03:41:36;95985.78;;;3.91;100.00
11936;BME280;6027;48.576;9.180;2022-11-21T03:44:07;95986.25;;;3.86;100.00
11936;BME280;6027;48.576;9.180;2022-11-21T03:46:35;95979.72;;;3.90;100.00
11936;BME280;6027;48.576;9.180;2022-11-21T03:49:00;95983.97;;;3.91;100.00
11936;BME280;6027;48.576;9.180;2022-11-21T03:51:26;95981.22;;;3.85;100.00
11936;BME280;6027;48.576;9.180;2022-11-21T03:53:53;95979.06;;;3.80;100.00
11936;BME280;6027;48.576;9.180;2022-11-21T03:56:18;95988.56;;;3.81;100.00
11936;BME280;6027;48.576;9.180;2022-11-21T03:58:44;95982.66;;;3.79;100.00
11936;BME280;6027;48.576;9.180;2022-11-21T04:01:10;95984.63;;;3.85;100.00
11936;BME280;6027;48.576;9.180;2022-11-21T04:03:38;95982.66;;;3.87;100.00
11936;BME280;6027;48.576;9.180;2022-11-21T04:06:04;95972.53;;;3.84;100.00
11936;BME280;6027;48.576;9.180;2022-11-21T04:08:31;95972.19;;;3.79;100.00
11936;BME280;6027;48.576;9.180;2022-11-21T04:10:57;95976.78;;;3.77;100.00
11936;BME280;6027;48.576;9.180;2022-11-21T04:13:23;95974.16;;;3.77;100.00
11936;BME280;6027;48.576;9.180;2022-11-21T04:15:48;95980.88;;;3.79;100.00
11936;BME280;6027;48.576;9.180;2022-11-21T04:18:14;95970.09;;;3.83;100.00
11936;BME280;6027;48.576;9.180;2022-11-21T04:20:39;95982.34;;;3.90;100.00
11936;BME280;6027;48.576;9.180;2022-11-21T04:23:05;95974.81;;;3.79;100.00
11936;BME280;6027;48.576;9.180;2022-11-21T04:25:30;95982.50;;;3.80;100.00
11936;BME280;6027;48.576;9.180;2022-11-21T04:27:57;95972.19;;;3.79;100.00
11936;BME280;6027;48.576;9.180;2022-11-21T04:30:23;95972.19;;;3.79;100.00
11936;BME280;6027;48.576;9.180;2022-11-21T04:32:53;95981.84;;;3.70;100.00
11936;BME280;6027;48.576;9.180;2022-11-21T04:35:19;95970.22;;;3.73;100.00
11936;BME280;6027;48.576;9.180;2022-11-21T04:37:45;95969.72;;;3.69;100.00
11936;BME280;6027;48.576;9.180;2022-11-21T04:40:11;95978.06;;;3.73;100.00
11936;BME280;6027;48.576;9.180;2022-11-21T04:42:40;95984.13;;;3.73;100.00
11936;BME280;6027;48.576;9.180;2022-11-21T04:45:06;95984.75;;;3.67;100.00
11936;BME280;6027;48.576;9.180;2022-11-21T04:47:31;95986.56;;;3.67;100.00
11936;BME280;6027;48.576;9.180;2022-11-21T04:50:00;95986.25;;;3.70;100.00
11936;BME280;6027;48.576;9.180;2022-11-21T04:52:25;95982.31;;;3.66;100.00
11936;BME280;6027;48.576;9.180;2022-11-21T04:54:50;95982.00;;;3.69;100.00
11936;BME280;6027;48.576;9.180;2022-11-21T04:57:16;95994.91;;;3.70;100.00
11936;BME280;6027;48.576;9.180;2022-11-21T04:59:41;95980.84;;;3.71;100.00
11936;BME280;6027;48.576;9.180;2022-11-21T05:02:07;95976.44;;;3.64;100.00
11936;BME280;6027;48.576;9.180;2022-11-21T05:04:32;95989.38;;;3.65;100.00
11936;BME280;6027;48.576;9.180;2022-11-21T05:06:57;95989.19;;;3.67;100.00
11936;BME280;6027;48.576;9.180;2022-11-21T05:09:23;95986.56;;;3.67;100.00
11936;BME280;6027;48.576;9.180;2022-11-21T05:11:48;95997.66;;;3.53;100.00
11936;BME280;6027;48.576;9.180;2022-11-21T05:14:32;95998.84;;;3.58;100.00
11936;BME280;6027;48.576;9.180;2022-11-21T05:16:58;95987.22;;;3.61;100.00
11936;BME280;6027;48.576;9.180;2022-11-21T05:19:23;95991.16;;;3.65;100.00
11936;BME280;6027;48.576;9.180;2022-11-21T05:21:49;95994.88;;;3.54;100.00
11936;BME280;6027;48.576;9.180;2022-11-21T05:24:14;95983.91;;;3.51;100.00
11936;BME280;6027;48.576;9.180;2022-11-21T05:26:40;95999.16;;;3.55;100.00
11936;BME280;6027;48.576;9.180;2022-11-21T05:29:05;95990.97;;;3.58;100.00
11936;BME280;6027;48.576;9.180;2022-11-21T05:31:31;96006.50;;;3.52;100.00
11936;BME280;6027;48.576;9.180;2022-11-21T05:33:56;95992.09;;;3.47;100.00
11936;BME280;6027;48.576;9.180;2022-11-21T05:36:22;95992.25;;;3.38;100.00
11936;BME280;6027;48.576;9.180;2022-11-21T05:38:47;95988.81;;;3.37;100.00
11936;BME280;6027;48.576;9.180;2022-11-21T05:41:13;95997.28;;;3.31;100.00
11936;BME280;6027;48.576;9.180;2022-11-21T05:43:38;95995.47;;;3.32;100.00
11936;BME280;6027;48.576;9.180;2022-11-21T05:46:10;96003.16;;;3.33;100.00
11936;BME280;6027;48.576;9.180;2022-11-21T05:48:36;96003.16;;;3.25;100.00
11936;BME280;6027;48.576;9.180;2022-11-21T05:51:05;95999.41;;;3.36;100.00
11936;BME280;6027;48.576;9.180;2022-11-21T05:53:31;95992.88;;;3.32;100.00
11936;BME280;6027;48.576;9.180;2022-11-21T05:56:02;95998.91;;;3.32;100.00
11936;BME280;6027;48.576;9.180;2022-11-21T05:58:28;96008.72;;;3.22;100.00
11936;BME280;6027;48.576;9.180;2022-11-21T06:00:57;96003.47;;;3.22;100.00
11936;BME280;6027;48.576;9.180;2022-11-21T06:03:24;96001.78;;;3.13;100.00
11936;BME280;6027;48.576;9.180;2022-11-21T06:10:59;95984.16;;;3.15;100.00
11936;BME280;6027;48.576;9.180;2022-11-21T06:13:25;95995.31;;;3.33;100.00
11936;BME280;6027;48.576;9.180;2022-11-21T06:16:04;95994.03;;;3.37;100.00
11936;BME280;6027;48.576;9.180;2022-11-21T06:18:36;95996.16;;;3.34;100.00
11936;BME280;6027;48.576;9.180;2022-11-21T06:21:07;95998.13;;;3.40;100.00
11936;BME280;6027;48.576;9.180;2022-11-21T06:23:33;95988.75;;;3.29;100.00
11936;BME280;6027;48.576;9.180;2022-11-21T06:26:02;95995.19;;;3.43;100.00
11936;BME280;6027;48.576;9.180;2022-11-21T06:28:33;96001.25;;;3.52;100.00
11936;BME280;6027;48.576;9.180;2022-11-21T06:31:09;95998.97;;;3.48;100.00
11936;BME280;6027;48.576;9.180;2022-11-21T06:33:35;95998.63;;;3.43;100.00
11936;BME280;6027;48.576;9.180;2022-11-21T06:36:06;95992.72;;;3.33;100.00
11936;BME280;6027;48.576;9.180;2022-11-21T06:38:32;96003.47;;;3.30;100.00
11936;BME280;6027;48.576;9.180;2022-11-21T06:41:12;96001.22;;;3.35;100.00
11936;BME280;6027;48.576;9.180;2022-11-21T06:43:38;96000.59;;;3.50;100.00
11936;BME280;6027;48.576;9.180;2022-11-21T06:46:07;95977.31;;;3.22;100.00
11936;BME280;6027;48.576;9.180;2022-11-21T06:48:34;95999.78;;;3.41;100.00
11936;BME280;6027;48.576;9.180;2022-11-21T06:51:20;96001.06;;;3.37;100.00
11936;BME280;6027;48.576;9.180;2022-11-21T06:53:52;95997.78;;;3.27;100.00
11936;BME280;6027;48.576;9.180;2022-11-21T06:56:20;96001.38;;;3.26;100.00
11936;BME280;6027;48.576;9.180;2022-11-21T06:58:45;95999.88;;;3.23;100.00
11936;BME280;6027;48.576;9.180;2022-11-21T07:01:11;96005.13;;;3.23;100.00
11936;BME280;6027;48.576;9.180;2022-11-21T07:03:37;96004.41;;;3.13;100.00
11936;BME280;6027;48.576;9.180;2022-11-21T07:06:03;95998.41;;;3.29;100.00
11936;BME280;6027;48.576;9.180;2022-11-21T07:08:30;96005.63;;;3.35;100.00
11936;BME280;6027;48.576;9.180;2022-11-21T07:11:00;96009.84;;;3.28;100.00
11936;BME280;6027;48.576;9.180;2022-11-21T07:13:26;96012.28;;;3.21;100.00
11936;BME280;6027;48.576;9.180;2022-11-21T07:15:54;96009.53;;;3.23;100.00
11936;BME280;6027;48.576;9.180;2022-11-21T07:18:20;96001.84;;;3.21;100.00
11936;BME280;6027;48.576;9.180;2022-11-21T07:20:46;96005.44;;;3.28;100.00
11936;BME280;6027;48.576;9.180;2022-11-21T07:23:12;96005.06;;;3.15;100.00
11936;BME280;6027;48.576;9.180;2022-11-21T07:25:38;96003.00;;;3.27;100.00
11936;BME280;6027;48.576;9.180;2022-11-21T07:28:05;96007.88;;;3.22;100.00
11936;BME280;6027;48.576;9.180;2022-11-21T07:30:32;96004.91;;;3.17;100.00
11936;BME280;6027;48.576;9.180;2022-11-21T07:32:59;96001.00;;;3.21;100.00
11936;BME280;6027;48.576;9.180;2022-11-21T07:35:25;96001.53;;;3.24;100.00
11936;BME280;6027;48.576;9.180;2022-11-21T07:37:52;96004.09;;;3.16;100.00
11936;BME280;6027;48.576;9.180;2022-11-21T07:40:18;95996.88;;;3.10;100.00
11936;BME280;6027;48.576;9.180;2022-11-21T07:42:44;95992.28;;;3.04;100.00
11936;BME280;6027;48.576;9.180;2022-11-21T07:45:11;95997.69;;;3.02;100.00
11936;BME280;6027;48.576;9.180;2022-11-21T07:47:37;95995.16;;;2.93;100.00
11936;BME280;6027;48.576;9.180;2022-11-21T07:50:04;95993.06;;;2.96;100.00
11936;BME280;6027;48.576;9.180;2022-11-21T07:52:30;95997.53;;;3.04;100.00
11936;BME280;6027;48.576;9.180;2022-11-21T07:54:56;95998.66;;;3.09;100.00
11936;BME280;6027;48.576;9.180;2022-11-21T07:57:22;95996.72;;;3.11;100.00
11936;BME280;6027;48.576;9.180;2022-11-21T07:59:48;95988.41;;;3.16;100.00
11936;BME280;6027;48.576;9.180;2022-11-21T08:02:22;95989.09;;;3.26;100.00
11936;BME280;6027;48.576;9.180;2022-11-21T08:04:48;95996.16;;;3.34;100.00
11936;BME280;6027;48.576;9.180;2022-11-21T08:07:14;95998.94;;;3.40;100.00
11936;BME280;6027;48.576;9.180;2022-11-21T08:09:40;96000.91;;;3.46;100.00
11936;BME280;6027;48.576;9.180;2022-11-21T08:12:06;95994.22;;;3.44;100.00
11936;BME280;6027;48.576;9.180;2022-11-21T08:14:32;95989.47;;;3.47;100.00
11936;BME280;6027;48.576;9.180;2022-11-21T08:16:57;96000.75;;;3.48;100.00
11936;BME280;6027;48.576;9.180;2022-11-21T08:19:23;96002.59;;;3.56;100.00
11936;BME280;6027;48.576;9.180;2022-11-21T08:21:48;95988.22;;;3.60;100.00
11936;BME280;6027;48.576;9.180;2022-11-21T08:24:14;95986.56;;;3.67;100.00
11936;BME280;6027;48.576;9.180;2022-11-21T08:26:41;95982.66;;;3.79;100.00
11936;BME280;6027;48.576;9.180;2022-11-21T08:29:08;95984.00;;;3.83;100.00
11936;BME280;6027;48.576;9.180;2022-11-21T08:31:35;95978.75;;;4.07;100.00
11936;BME280;6027;48.576;9.180;2022-11-21T08:34:01;95980.88;;;4.20;100.00
11936;BME280;6027;48.576;9.180;2022-11-21T08:36:26;95982.84;;;4.42;100.00
11936;BME280;6027;48.576;9.180;2022-11-21T08:38:52;95983.78;;;4.49;100.00
11936;BME280;6027;48.576;9.180;2022-11-21T08:41:17;95978.56;;;4.58;100.00
11936;BME280;6027;48.576;9.180;2022-11-21T08:44:01;95986.56;;;4.48;100.00
11936;BME280;6027;48.576;9.180;2022-11-21T08:46:27;95983.28;;;4.46;100.00
11936;BME280;6027;48.576;9.180;2022-11-21T08:48:54;95980.16;;;4.67;100.00
11936;BME280;6027;48.576;9.180;2022-11-21T08:51:20;95980.97;;;4.75;100.00
11936;BME280;6027;48.576;9.180;2022-11-21T08:53:45;95981.91;;;4.91;100.00
11936;BME280;6027;48.576;9.180;2022-11-21T08:56:11;95969.38;;;5.01;100.00
11936;BME280;6027;48.576;9.180;2022-11-21T08:58:36;95968.72;;;5.07;100.00
11936;BME280;6027;48.576;9.180;2022-11-21T09:01:01;95967.72;;;5.16;100.00
11936;BME280;6027;48.576;9.180;2022-11-21T09:03:27;95969.34;;;5.17;100.00
11936;BME280;6027;48.576;9.180;2022-11-21T09:05:55;95972.06;;;5.32;100.00
11936;BME280;6027;48.576;9.180;2022-11-21T09:08:21;95963.53;;;5.30;100.00
11936;BME280;6027;48.576;9.180;2022-11-21T09:10:46;95965.03;;;5.24;100.00
11936;BME280;6027;48.576;9.180;2022-11-21T09:13:12;95951.88;;;5.32;100.00
11936;BME280;6027;48.576;9.180;2022-11-21T09:15:37;95954.81;;;5.37;100.00
11936;BME280;6027;48.576;9.180;2022-11-21T09:18:21;95945.53;;;5.49;100.00
11936;BME280;6027;48.576;9.180;2022-11-21T09:20:47;95936.91;;;5.64;100.00
11936;BME280;6027;48.576;9.180;2022-11-21T09:23:13;95934.19;;;5.57;100.00
11936;BME280;6027;48.576;9.180;2022-11-21T09:25:40;95936.06;;;5.71;100.00
11936;BME280;6027;48.576;9.180;2022-11-21T09:28:07;95940.25;;;5.80;100.00
11936;BME280;6027;48.576;9.180;2022-11-21T09:30:33;95936.59;;;5.89;100.00
11936;BME280;6027;48.576;9.180;2022-11-21T09:33:03;95938.06;;;5.92;100.00
11936;BME280;6027;48.576;9.180;2022-11-21T09:35:29;95946.16;;;6.05;100.00
11936;BME280;6027;48.576;9.180;2022-11-21T09:37:54;95946.38;;;6.18;100.00
11936;BME280;6027;48.576;9.180;2022-11-21T09:40:20;95948.28;;;6.10;100.00
11936;BME280;6027;48.576;9.180;2022-11-21T09:46:11;95958.06;;;6.16;100.00
11936;BME280;6027;48.576;9.180;2022-11-21T09:48:50;95954.44;;;6.17;100.00
11936;BME280;6027;48.576;9.180;2022-11-21T09:51:19;95942.72;;;6.42;100.00
11936;BME280;6027;48.576;9.180;2022-11-21T09:53:59;95941.44;;;6.38;100.00
11936;BME280;6027;48.576;9.180;2022-11-21T09:56:29;95925.41;;;6.33;100.00
11936;BME280;6027;48.576;9.180;2022-11-21T10:01:30;95909.72;;;6.54;100.00
11936;BME280;6027;48.576;9.180;2022-11-21T10:03:56;95910.63;;;6.47;100.00
11936;BME280;6027;48.576;9.180;2022-11-21T10:06:25;95911.56;;;6.54;100.00
11936;BME280;6027;48.576;9.180;2022-11-21T10:16:54;95886.06;;;6.69;100.00
11936;BME280;6027;48.576;9.180;2022-11-21T10:19:50;95873.44;;;6.65;100.00
11936;BME280;6027;48.576;9.180;2022-11-21T10:25:22;95862.56;;;6.82;100.00
11936;BME280;6027;48.576;9.180;2022-11-21T10:28:02;95856.28;;;6.83;100.00
11936;BME280;6027;48.576;9.180;2022-11-21T10:30:29;95852.56;;;6.78;100.00
11936;BME280;6027;48.576;9.180;2022-11-21T10:33:00;95852.56;;;6.78;100.00
11936;BME280;6027;48.576;9.180;2022-11-21T10:35:40;95852.34;;;6.94;100.00
11936;BME280;6027;48.576;9.180;2022-11-21T10:38:27;95853.25;;;7.01;100.00
11936;BME280;6027;48.576;9.180;2022-11-21T10:41:05;95842.38;;;7.04;100.00
11936;BME280;6027;48.576;9.180;2022-11-21T10:43:50;95842.47;;;7.11;100.00
11936;BME280;6027;48.576;9.180;2022-11-21T10:46:38;95833.56;;;7.12;100.00
11936;BME280;6027;48.576;9.180;2022-11-21T10:49:03;95832.69;;;7.26;100.00
11936;BME280;6027;48.576;9.180;2022-11-21T10:51:46;95824.47;;;7.36;100.00
11936;BME280;6027;48.576;9.180;2022-11-21T10:54:15;95822.41;;;7.31;100.00
11936;BME280;6027;48.576;9.180;2022-11-21T10:59:30;95818.56;;;7.12;100.00
11936;BME280;6027;48.576;9.180;2022-11-21T11:04:37;95822.28;;;7.18;100.00
11936;BME280;6027;48.576;9.180;2022-11-21T11:07:21;95809.81;;;7.26;100.00
11936;BME280;6027;48.576;9.180;2022-11-21T11:09:47;95807.84;;;7.35;100.00
11936;BME280;6027;48.576;9.180;2022-11-21T11:15:19;95780.53;;;7.36;100.00
11936;BME280;6027;48.576;9.180;2022-11-21T11:20:43;95767.81;;;7.40;100.00
11936;BME280;6027;48.576;9.180;2022-11-21T11:25:49;95762.78;;;7.73;100.00
11936;BME280;6027;48.576;9.180;2022-11-21T11:28:21;95754.56;;;7.82;100.00
11936;BME280;6027;48.576;9.180;2022-11-21T11:30:52;95748.56;;;7.95;100.00
11936;BME280;6027;48.576;9.180;2022-11-21T11:33:38;95744.28;;;7.94;100.00
11936;BME280;6027;48.576;9.180;2022-11-21T11:39:14;95739.03;;;7.94;100.00
11936;BME280;6027;48.576;9.180;2022-11-21T11:47:37;95734.13;;;7.91;98.68
11936;BME280;6027;48.576;9.180;2022-11-21T11:50:18;95733.00;;;8.00;96.24
11936;BME280;6027;48.576;9.180;2022-11-21T12:01:01;95712.38;;;8.17;91.37
11936;BME280;6027;48.576;9.180;2022-11-21T12:03:35;95715.72;;;8.32;89.53
11936;BME280;6027;48.576;9.180;2022-11-21T12:06:17;95711.50;;;8.38;91.23
11936;BME280;6027;48.576;9.180;2022-11-21T12:11:22;95699.53;;;8.01;89.42
11936;BME280;6027;48.576;9.180;2022-11-21T12:14:27;95685.59;;;8.07;91.54
11936;BME280;6027;48.576;9.180;2022-11-21T12:17:16;95673.91;;;8.22;86.03
11936;BME280;6027;48.576;9.180;2022-11-21T12:19:53;95674.59;;;8.38;83.91
11936;BME280;6027;48.576;9.180;2022-11-21T12:22:18;95676.03;;;8.40;84.89
11936;BME280;6027;48.576;9.180;2022-11-21T12:24:44;95668.31;;;8.39;83.13
11936;BME280;6027;48.576;9.180;2022-11-21T12:27:23;95659.00;;;8.43;88.36
11936;BME280;6027;48.576;9.180;2022-11-21T12:30:02;95654.78;;;8.61;88.08
11936;BME280;6027;48.576;9.180;2022-11-21T12:41:06;95632.78;;;8.35;82.23
11936;BME280;6027;48.576;9.180;2022-11-21T12:49:32;95599.88;;;8.30;83.71
11936;BME280;6027;48.576;9.180;2022-11-21T12:55:20;95597.59;;;8.14;81.93
11936;BME280;6027;48.576;9.180;2022-11-21T13:00:39;95588.69;;;8.15;86.13
11936;BME280;6027;48.576;9.180;2022-11-21T13:06:02;95572.56;;;8.38;86.35
11936;BME280;6027;48.576;9.180;2022-11-21T13:08:30;95569.75;;;8.46;88.23
11936;BME280;6027;48.576;9.180;2022-11-21T13:16:49;95559.19;;;8.66;85.30
11936;BME280;6027;48.576;9.180;2022-11-21T13:19:33;95557.56;;;8.72;84.90
11936;BME280;6027;48.576;9.180;2022-11-21T13:22:00;95553.09;;;8.79;85.01
11936;BME280;6027;48.576;9.180;2022-11-21T13:30:16;95543.97;;;8.81;76.55
11936;BME280;6027;48.576;9.180;2022-11-21T13:32:47;95531.78;;;8.80;78.20
11936;BME280;6027;48.576;9.180;2022-11-21T13:45:46;95519.56;;;8.20;81.43
11936;BME280;6027;48.576;9.180;2022-11-21T13:53:43;95505.94;;;8.10;82.40
11936;BME280;6027;48.576;9.180;2022-11-21T13:56:26;95494.38;;;8.04;82.25
11936;BME280;6027;48.576;9.180;2022-11-21T14:07:33;95488.13;;;8.31;82.70
11936;BME280;6027;48.576;9.180;2022-11-21T14:10:02;95487.72;;;8.21;84.25
11936;BME280;6027;48.576;9.180;2022-11-21T14:12:34;95491.16;;;8.28;85.28
11936;BME280;6027;48.576;9.180;2022-11-21T14:17:47;95480.47;;;8.43;85.80
11936;BME280;6027;48.576;9.180;2022-11-21T14:23:05;95462.19;;;8.48;84.87
11936;BME280;6027;48.576;9.180;2022-11-21T14:28:05;95458.56;;;8.43;85.47
11936;BME280;6027;48.576;9.180;2022-11-21T14:30:36;95459.16;;;8.45;84.96
11936;BME280;6027;48.576;9.180;2022-11-21T14:35:48;95449.44;;;8.39;83.63
11936;BME280;6027;48.576;9.180;2022-11-21T14:38:16;95445.97;;;8.45;84.37
11936;BME280;6027;48.576;9.180;2022-11-21T14:40:44;95443.34;;;8.45;85.65
11936;BME280;6027;48.576;9.180;2022-11-21T14:43:30;95425.91;;;8.44;86.39
11936;BME280;6027;48.576;9.180;2022-11-21T14:45:56;95424.88;;;8.45;86.44
11936;BME280;6027;48.576;9.180;2022-11-21T14:48:26;95426.50;;;8.39;85.22
11936;BME280;6027;48.576;9.180;2022-11-21T14:50:52;95418.38;;;8.41;85.48
11936;BME280;6027;48.576;9.180;2022-11-21T14:53:19;95399.31;;;8.32;85.15
11936;BME280;6027;48.576;9.180;2022-11-21T14:55:48;95404.97;;;8.22;86.18
11936;BME280;6027;48.576;9.180;2022-11-21T14:58:15;95394.22;;;8.30;86.44
11936;BME280;6027;48.576;9.180;2022-11-21T15:01:00;95388.94;;;8.30;86.55
11936;BME280;6027;48.576;9.180;2022-11-21T15:03:26;95378.63;;;8.22;88.15
11936;BME280;6027;48.576;9.180;2022-11-21T15:06:03;95370.50;;;8.17;89.27
11936;BME280;6027;48.576;9.180;2022-11-21T15:08:31;95360.97;;;8.10;87.30
11936;BME280;6027;48.576;9.180;2022-11-21T15:10:58;95362.19;;;8.14;87.94
11936;BME280;6027;48.576;9.180;2022-11-21T15:13:26;95351.03;;;8.12;87.11
11936;BME280;6027;48.576;9.180;2022-11-21T15:15:55;95353.91;;;8.04;88.10
11936;BME280;6027;48.576;9.180;2022-11-21T15:18:26;95345.16;;;7.96;88.03
11936;BME280;6027;48.576;9.180;2022-11-21T15:20:58;95329.97;;;7.92;88.41
11936;BME280;6027;48.576;9.180;2022-11-21T15:25:51;95309.72;;;7.79;88.78
11936;BME280;6027;48.576;9.180;2022-11-21T15:28:17;95310.13;;;7.83;89.14
11936;BME280;6027;48.576;9.180;2022-11-21T15:30:43;95306.44;;;7.71;91.15
11936;BME280;6027;48.576;9.180;2022-11-21T15:33:19;95302.19;;;7.56;92.65
11936;BME280;6027;48.576;9.180;2022-11-21T15:35:54;95285.00;;;7.60;91.08